createdAt,value
2022-12-03T00:01:59.660Z,-0.14
2022-12-03T00:04:26.284Z,-0.14
2022-12-03T00:06:53.144Z,-0.13
2022-12-03T00:09:20.921Z,-0.13
2022-12-03T00:11:48.099Z,-0.15
2022-12-03T00:14:14.692Z,-0.14
2022-12-03T00:16:41.274Z,-0.16
2022-12-03T00:19:07.925Z,-0.15
2022-12-03T00:21:34.918Z,-0.16
2022-12-03T00:24:01.601Z,-0.13
2022-12-03T00:26:28.276Z,-0.14
2022-12-03T00:28:55.219Z,-0.18
2022-12-03T00:31:23.564Z,-0.17
2022-12-03T00:33:51.337Z,-0.16
2022-12-03T00:36:18.828Z,-0.22
2022-12-03T00:38:45.780Z,-0.24
2022-12-03T00:41:13.126Z,-0.19
2022-12-03T00:43:39.805Z,-0.23
2022-12-03T00:46:06.581Z,-0.18
2022-12-03T00:48:33.246Z,-0.22
2022-12-03T00:50:59.891Z,-0.19
2022-12-03T00:53:26.579Z,-0.19
2022-12-03T00:55:53.178Z,-0.15
2022-12-03T00:58:19.753Z,-0.20
2022-12-03T01:00:46.349Z,-0.14
2022-12-03T01:03:12.923Z,-0.18
2022-12-03T01:05:39.948Z,-0.20
2022-12-03T01:08:06.671Z,-0.16
2022-12-03T01:10:33.286Z,-0.18
2022-12-03T01:13:00.126Z,-0.16
2022-12-03T01:15:26.821Z,-0.13
2022-12-03T01:17:54.337Z,-0.18
2022-12-03T01:20:21.039Z,-0.21
2022-12-03T01:22:47.698Z,-0.19
2022-12-03T01:25:14.416Z,-0.22
2022-12-03T01:27:40.989Z,-0.22
2022-12-03T01:30:08.718Z,-0.18
2022-12-03T01:32:35.346Z,-0.20
2022-12-03T01:35:01.899Z,-0.25
2022-12-03T01:37:28.568Z,-0.23
2022-12-03T01:39:55.182Z,-0.25
2022-12-03T01:42:24.476Z,-0.20
2022-12-03T01:44:53.781Z,-0.21
2022-12-03T01:47:24.589Z,-0.22
2022-12-03T01:49:55.520Z,-0.18
2022-12-03T01:52:27.006Z,-0.20
2022-12-03T01:54:56.264Z,-0.24
2022-12-03T01:57:34.244Z,-0.25
2022-12-03T02:00:01.808Z,-0.24
2022-12-03T02:02:32.338Z,-0.31
2022-12-03T02:05:00.853Z,-0.30
2022-12-03T02:07:32.738Z,-0.37
2022-12-03T02:10:01.890Z,-0.33
2022-12-03T02:12:34.288Z,-0.25
2022-12-03T02:15:01.943Z,-0.23
2022-12-03T02:17:28.941Z,-0.21
2022-12-03T02:19:56.808Z,-0.22
2022-12-03T02:22:48.304Z,-0.23
2022-12-03T02:25:44.295Z,-0.19
2022-12-03T02:28:11.049Z,-0.21
2022-12-03T02:30:37.887Z,-0.26
2022-12-03T02:33:05.139Z,-0.34
2022-12-03T02:35:34.753Z,-0.29
2022-12-03T02:38:13.973Z,-0.22
2022-12-03T02:40:42.113Z,-0.23
2022-12-03T02:43:10.553Z,-0.21
2022-12-03T02:45:41.258Z,-0.18
2022-12-03T02:48:19.375Z,-0.22
2022-12-03T02:50:51.070Z,-0.23
2022-12-03T02:53:22.531Z,-0.26
2022-12-03T02:55:50.833Z,-0.25
2022-12-03T02:58:18.357Z,-0.25
2022-12-03T03:00:46.630Z,-0.29
2022-12-03T03:03:13.722Z,-0.28
2022-12-03T03:05:41.545Z,-0.36
2022-12-03T03:08:09.868Z,-0.30
2022-12-03T03:10:39.035Z,-0.28
2022-12-03T03:13:12.241Z,-0.24
2022-12-03T03:15:40.564Z,-0.31
2022-12-03T03:18:08.815Z,-0.27
2022-12-03T03:20:36.128Z,-0.27
2022-12-03T03:23:17.810Z,-0.30
2022-12-03T03:26:09.495Z,-0.31
2022-12-03T03:28:39.292Z,-0.30
2022-12-03T03:31:08.200Z,-0.37
2022-12-03T03:33:36.375Z,-0.31
2022-12-03T03:36:03.324Z,-0.34
2022-12-03T03:38:30.528Z,-0.24
2022-12-03T03:40:58.910Z,-0.26
2022-12-03T03:43:25.909Z,-0.25
2022-12-03T03:45:53.929Z,-0.25
2022-12-03T03:48:21.247Z,-0.25
2022-12-03T03:50:48.945Z,-0.30
2022-12-03T03:53:17.100Z,-0.26
2022-12-03T03:55:43.979Z,-0.30
2022-12-03T03:58:11.027Z,-0.23
2022-12-03T04:00:37.808Z,-0.19
2022-12-03T04:03:05.329Z,-0.21
2022-12-03T04:05:32.031Z,-0.20
2022-12-03T04:07:59.371Z,-0.18
2022-12-03T04:10:44.944Z,-0.21
2022-12-03T04:13:11.590Z,-0.21
2022-12-03T04:15:38.217Z,-0.17
2022-12-03T04:18:23.346Z,-0.19
2022-12-03T04:20:49.921Z,-0.21
2022-12-03T04:23:16.558Z,-0.25
2022-12-03T04:26:01.648Z,-0.26
2022-12-03T04:28:47.011Z,-0.26
2022-12-03T04:31:36.828Z,-0.25
2022-12-03T04:34:22.534Z,-0.25
2022-12-03T04:36:49.164Z,-0.23
2022-12-03T04:39:15.937Z,-0.26
2022-12-03T04:41:42.547Z,-0.28
2022-12-03T04:44:27.703Z,-0.26
2022-12-03T04:46:54.369Z,-0.23
2022-12-03T04:49:21.375Z,-0.14
2022-12-03T04:51:48.040Z,-0.19
2022-12-03T04:54:15.069Z,-0.17
2022-12-03T04:56:41.931Z,-0.08
2022-12-03T04:59:15.770Z,-0.14
2022-12-03T05:01:43.328Z,-0.17
2022-12-03T05:04:10.527Z,-0.08
2022-12-03T05:06:37.204Z,-0.04
2022-12-03T05:09:03.937Z,-0.05
2022-12-03T05:11:31.478Z,-0.10
2022-12-03T05:13:58.079Z,-0.10
2022-12-03T05:16:24.832Z,-0.13
2022-12-03T05:18:51.453Z,-0.11
2022-12-03T05:21:18.059Z,-0.11
2022-12-03T05:23:44.774Z,-0.18
2022-12-03T05:26:11.439Z,-0.23
2022-12-03T05:28:38.047Z,-0.24
2022-12-03T05:31:05.175Z,-0.27
2022-12-03T05:33:31.923Z,-0.25
2022-12-03T05:35:58.663Z,-0.30
2022-12-03T05:38:25.246Z,-0.27
2022-12-03T05:40:51.805Z,-0.24
2022-12-03T05:43:18.385Z,-0.18
2022-12-03T05:45:45.405Z,-0.25
2022-12-03T05:48:15.584Z,-0.23
2022-12-03T05:50:44.378Z,-0.30
2022-12-03T05:53:15.081Z,-0.23
2022-12-03T05:55:41.908Z,-0.20
2022-12-03T05:58:09.199Z,-0.25
2022-12-03T06:00:42.380Z,-0.30
2022-12-03T06:03:09.731Z,-0.44
2022-12-03T06:05:36.453Z,-0.39
2022-12-03T06:08:03.171Z,-0.39
2022-12-03T06:10:30.134Z,-0.40
2022-12-03T06:12:57.031Z,-0.41
2022-12-03T06:15:24.048Z,-0.44
2022-12-03T06:17:50.713Z,-0.40
2022-12-03T06:20:19.998Z,-0.42
2022-12-03T06:22:47.124Z,-0.47
2022-12-03T06:25:14.414Z,-0.49
2022-12-03T06:27:40.996Z,-0.48
2022-12-03T06:30:09.001Z,-0.45
2022-12-03T06:32:35.712Z,-0.49
2022-12-03T06:35:02.387Z,-0.53
2022-12-03T06:37:28.981Z,-0.55
2022-12-03T06:39:55.552Z,-0.57
2022-12-03T06:42:22.145Z,-0.60
2022-12-03T06:44:48.731Z,-0.51
2022-12-03T06:47:15.316Z,-0.52
2022-12-03T06:49:41.925Z,-0.47
2022-12-03T06:52:08.483Z,-0.50
2022-12-03T06:54:35.086Z,-0.59
2022-12-03T06:57:01.740Z,-0.61
2022-12-03T06:59:28.458Z,-0.58
2022-12-03T07:01:55.167Z,-0.50
2022-12-03T07:04:21.788Z,-0.47
2022-12-03T07:06:48.358Z,-0.50
2022-12-03T07:09:17.012Z,-0.56
2022-12-03T07:11:43.612Z,-0.57
2022-12-03T07:14:13.665Z,-0.60
2022-12-03T07:16:43.156Z,-0.61
2022-12-03T07:19:10.677Z,-0.61
2022-12-03T07:21:37.230Z,-0.63
2022-12-03T07:24:04.040Z,-0.63
2022-12-03T07:26:30.618Z,-0.57
2022-12-03T07:28:57.267Z,-0.60
2022-12-03T07:31:23.952Z,-0.50
2022-12-03T07:33:50.590Z,-0.46
2022-12-03T07:36:17.431Z,-0.39
2022-12-03T07:38:44.788Z,-0.46
2022-12-03T07:41:11.434Z,-0.49
2022-12-03T07:43:38.103Z,-0.45
2022-12-03T07:46:04.914Z,-0.50
2022-12-03T07:48:31.540Z,-0.50
2022-12-03T07:50:58.603Z,-0.47
2022-12-03T07:53:25.160Z,-0.44
2022-12-03T07:55:51.807Z,-0.46
2022-12-03T07:58:18.388Z,-0.36
2022-12-03T08:00:44.992Z,-0.32
2022-12-03T08:03:11.594Z,-0.37
2022-12-03T08:05:38.153Z,-0.28
2022-12-03T08:08:05.258Z,-0.33
2022-12-03T08:10:31.970Z,-0.40
2022-12-03T08:12:59.218Z,-0.35
2022-12-03T08:15:32.244Z,-0.29
2022-12-03T08:18:11.582Z,-0.18
2022-12-03T08:20:40.497Z,-0.20
2022-12-03T08:23:12.904Z,-0.17
2022-12-03T08:25:39.538Z,-0.15
2022-12-03T08:28:12.334Z,-0.11
2022-12-03T08:30:39.503Z,-0.02
2022-12-03T08:33:35.783Z,-0.09
2022-12-03T08:36:18.758Z,-0.08
2022-12-03T08:39:34.567Z,-0.03
2022-12-03T08:42:41.900Z,0.06
2022-12-03T08:45:40.077Z,0.04
2022-12-03T08:48:27.314Z,-0.07
2022-12-03T08:50:56.400Z,-0.07
2022-12-03T08:53:31.143Z,-0.07
2022-12-03T08:56:28.415Z,-0.11
2022-12-03T08:58:58.732Z,0.04
2022-12-03T09:01:41.809Z,0.14
2022-12-03T09:04:23.305Z,0.14
2022-12-03T09:06:51.170Z,0.14
2022-12-03T09:09:18.454Z,0.08
2022-12-03T09:11:45.753Z,0.10
2022-12-03T09:14:18.346Z,0.12
2022-12-03T09:16:45.586Z,0.09
2022-12-03T09:19:12.302Z,0.09
2022-12-03T09:21:38.894Z,-0.04
2022-12-03T09:24:05.718Z,0.05
2022-12-03T09:26:32.383Z,0.08
2022-12-03T09:28:58.973Z,0.12
2022-12-03T09:31:25.660Z,0.13
2022-12-03T09:33:52.303Z,0.17
2022-12-03T09:36:18.941Z,0.19
2022-12-03T09:38:47.867Z,0.22
2022-12-03T09:41:15.061Z,0.19
2022-12-03T09:46:30.296Z,0.25
2022-12-03T09:48:57.533Z,0.22
2022-12-03T09:51:31.698Z,0.39
2022-12-03T09:54:00.279Z,0.56
2022-12-03T09:56:26.892Z,0.69
2022-12-03T09:58:53.678Z,0.87
2022-12-03T10:01:21.350Z,1.04
2022-12-03T10:03:50.602Z,1.20
2022-12-03T10:06:21.817Z,1.11
2022-12-03T10:08:52.039Z,0.94
2022-12-03T10:11:20.866Z,1.12
2022-12-03T10:13:47.961Z,1.20
2022-12-03T10:16:18.231Z,1.27
2022-12-03T10:18:49.188Z,1.34
2022-12-03T10:21:25.365Z,1.17
2022-12-03T10:24:16.608Z,1.07
2022-12-03T10:26:45.047Z,0.90
2022-12-03T10:29:13.394Z,0.92
2022-12-03T10:31:40.590Z,0.96
2022-12-03T10:34:08.868Z,0.84
2022-12-03T10:36:35.602Z,0.84
2022-12-03T10:39:16.429Z,0.88
2022-12-03T10:41:44.420Z,0.83
2022-12-03T10:44:13.966Z,0.81
2022-12-03T10:46:41.350Z,0.73
2022-12-03T10:49:17.167Z,0.74
2022-12-03T10:51:45.086Z,0.82
2022-12-03T10:54:20.159Z,0.89
2022-12-03T10:56:48.200Z,0.83
2022-12-03T10:59:23.480Z,0.82
2022-12-03T11:01:51.012Z,0.80
2022-12-03T11:04:23.783Z,0.77
2022-12-03T11:06:51.035Z,0.88
2022-12-03T11:09:24.943Z,0.72
2022-12-03T11:11:52.527Z,0.81
2022-12-03T11:14:54.080Z,0.92
2022-12-03T11:17:42.577Z,0.96
2022-12-03T11:20:22.831Z,0.76
2022-12-03T11:22:59.876Z,0.78
2022-12-03T11:25:29.371Z,0.87
2022-12-03T11:28:14.444Z,0.82
2022-12-03T11:30:50.615Z,0.89
2022-12-03T11:33:35.240Z,0.71
2022-12-03T11:36:05.140Z,0.80
2022-12-03T11:38:37.648Z,0.80
2022-12-03T11:41:06.913Z,0.77
2022-12-03T11:43:51.824Z,0.73
2022-12-03T11:46:24.653Z,0.74
2022-12-03T11:48:54.105Z,0.77
2022-12-03T11:51:23.109Z,0.65
2022-12-03T11:53:52.493Z,0.69
2022-12-03T11:56:23.672Z,0.69
2022-12-03T11:58:58.607Z,0.62
2022-12-03T12:01:38.936Z,0.69
2022-12-03T12:04:26.500Z,0.74
2022-12-03T12:06:53.561Z,0.81
2022-12-03T12:10:05.453Z,0.81
2022-12-03T12:12:38.410Z,0.71
2022-12-03T12:15:39.065Z,0.68
2022-12-03T12:18:40.865Z,0.77
2022-12-03T12:21:49.865Z,0.65
2022-12-03T12:24:41.300Z,0.64
2022-12-03T12:27:11.684Z,0.64
2022-12-03T12:29:40.839Z,0.65
2022-12-03T12:32:29.378Z,0.59
2022-12-03T12:35:19.581Z,0.58
2022-12-03T12:38:00.836Z,0.61
2022-12-03T12:40:30.472Z,0.52
2022-12-03T12:43:08.474Z,0.61
2022-12-03T12:45:41.992Z,0.63
2022-12-03T12:48:22.123Z,0.61
2022-12-03T12:50:53.543Z,0.61
2022-12-03T12:53:24.811Z,0.72
2022-12-03T12:55:57.914Z,0.70
2022-12-03T12:58:25.864Z,0.73
2022-12-03T13:00:55.737Z,0.77
2022-12-03T13:03:25.905Z,0.80
2022-12-03T13:05:53.733Z,0.76
2022-12-03T13:08:22.084Z,0.72
2022-12-03T13:10:49.691Z,0.88
2022-12-03T13:13:19.304Z,0.89
2022-12-03T13:16:16.144Z,0.83
2022-12-03T13:18:48.169Z,0.76
2022-12-03T13:21:23.152Z,0.78
2022-12-03T13:23:59.107Z,0.75
2022-12-03T13:26:45.898Z,0.62
2022-12-03T13:29:18.300Z,0.60
2022-12-03T13:31:55.659Z,0.57
2022-12-03T13:34:25.214Z,0.49
2022-12-03T13:36:58.095Z,0.54
2022-12-03T13:39:35.137Z,0.48
2022-12-03T13:42:42.147Z,0.52
2022-12-03T13:45:14.761Z,0.50
2022-12-03T13:47:53.170Z,0.54
2022-12-03T13:50:39.377Z,0.52
2022-12-03T13:53:33.413Z,0.49
2022-12-03T13:56:26.449Z,0.50
2022-12-03T13:58:53.762Z,0.48
2022-12-03T14:01:20.705Z,0.46
2022-12-03T14:03:47.422Z,0.49
2022-12-03T14:06:14.508Z,0.49
2022-12-03T14:08:41.110Z,0.51
2022-12-03T14:11:07.943Z,0.53
2022-12-03T14:13:34.522Z,0.52
2022-12-03T14:16:01.097Z,0.49
2022-12-03T14:18:27.713Z,0.47
2022-12-03T14:20:54.310Z,0.52
2022-12-03T14:23:20.894Z,0.54
2022-12-03T14:25:47.507Z,0.46
2022-12-03T14:28:14.079Z,0.46
2022-12-03T14:30:40.858Z,0.53
2022-12-03T14:33:07.631Z,0.37
2022-12-03T14:35:35.441Z,0.27
2022-12-03T14:38:01.995Z,0.30
2022-12-03T14:40:28.590Z,0.32
2022-12-03T14:42:55.187Z,0.32
2022-12-03T14:45:23.024Z,0.30
2022-12-03T14:47:49.706Z,0.22
2022-12-03T14:50:16.288Z,0.13
2022-12-03T14:52:43.332Z,0.20
2022-12-03T14:55:10.052Z,0.12
2022-12-03T14:57:37.724Z,0.16
2022-12-03T15:00:07.101Z,0.12
2022-12-03T15:02:33.874Z,0.13
2022-12-03T15:05:00.512Z,0.17
2022-12-03T15:07:27.123Z,0.19
2022-12-03T15:09:54.162Z,0.32
2022-12-03T15:12:21.461Z,0.29
2022-12-03T15:14:48.245Z,0.32
2022-12-03T15:17:15.002Z,0.23
2022-12-03T15:19:41.738Z,0.16
2022-12-03T15:22:08.290Z,0.12
2022-12-03T15:24:34.923Z,0.04
2022-12-03T15:27:01.487Z,-0.02
2022-12-03T15:29:28.101Z,-0.11
2022-12-03T15:31:54.803Z,-0.06
2022-12-03T15:34:23.161Z,-0.01
2022-12-03T15:36:52.400Z,-0.05
2022-12-03T15:39:19.480Z,-0.09
2022-12-03T15:41:46.072Z,-0.04
2022-12-03T15:44:12.643Z,0.01
2022-12-03T15:46:39.281Z,-0.05
2022-12-03T15:49:05.910Z,-0.06
2022-12-03T15:51:32.887Z,-0.09
2022-12-03T15:53:59.466Z,-0.06
2022-12-03T15:56:26.096Z,-0.01
2022-12-03T15:58:53.642Z,-0.08
2022-12-03T16:01:20.345Z,-0.09
2022-12-03T16:03:47.078Z,-0.03
2022-12-03T16:06:14.746Z,-0.05
2022-12-03T16:08:41.411Z,0.01
2022-12-03T16:11:08.048Z,-0.04
2022-12-03T16:13:34.676Z,-0.14
2022-12-03T16:16:01.378Z,-0.09
2022-12-03T16:18:28.059Z,-0.10
2022-12-03T16:20:54.750Z,-0.13
2022-12-03T16:23:21.349Z,-0.12
2022-12-03T16:25:47.957Z,-0.09
2022-12-03T16:28:14.782Z,-0.12
2022-12-03T16:30:41.612Z,-0.12
2022-12-03T16:33:08.203Z,-0.16
2022-12-03T16:35:34.807Z,-0.12
2022-12-03T16:38:01.374Z,-0.10
2022-12-03T16:40:27.984Z,-0.10
2022-12-03T16:42:56.361Z,-0.12
2022-12-03T16:45:41.163Z,-0.12
2022-12-03T16:48:08.023Z,-0.12
2022-12-03T16:50:37.553Z,-0.08
2022-12-03T16:53:04.174Z,-0.09
2022-12-03T16:55:31.062Z,-0.11
2022-12-03T16:57:57.804Z,-0.13
2022-12-03T17:00:26.316Z,-0.11
2022-12-03T17:02:53.090Z,-0.10
2022-12-03T17:05:20.243Z,-0.15
2022-12-03T17:07:47.262Z,-0.12
2022-12-03T17:10:14.096Z,-0.10
2022-12-03T17:13:08.355Z,-0.12
2022-12-03T17:15:28.233Z,-0.19
2022-12-03T17:17:55.021Z,-0.15
2022-12-03T17:20:21.642Z,-0.12
2022-12-03T17:22:49.192Z,-0.14
2022-12-03T17:25:16.253Z,-0.19
2022-12-03T17:27:45.365Z,-0.22
2022-12-03T17:30:13.273Z,-0.20
2022-12-03T17:32:39.972Z,-0.13
2022-12-03T17:35:07.307Z,-0.19
2022-12-03T17:37:34.720Z,-0.20
2022-12-03T17:40:01.704Z,-0.19
2022-12-03T17:42:28.650Z,-0.09
2022-12-03T17:44:55.639Z,-0.05
2022-12-03T17:47:24.397Z,-0.05
2022-12-03T17:49:51.981Z,-0.07
2022-12-03T17:52:19.153Z,-0.04
2022-12-03T17:55:10.115Z,-0.07
2022-12-03T17:57:33.925Z,-0.08
2022-12-03T18:00:01.492Z,-0.02
2022-12-03T18:02:28.389Z,-0.10
2022-12-03T18:04:55.275Z,-0.07
2022-12-03T18:07:21.906Z,-0.08
2022-12-03T18:09:48.478Z,-0.07
2022-12-03T18:12:15.079Z,-0.09
2022-12-03T18:14:41.705Z,-0.10
2022-12-03T18:17:08.389Z,-0.09
2022-12-03T18:19:34.963Z,-0.06
2022-12-03T18:22:01.574Z,0.02
2022-12-03T18:24:28.149Z,0.02
2022-12-03T18:26:54.765Z,-0.01
2022-12-03T18:29:21.391Z,-0.03
2022-12-03T18:31:48.023Z,-0.04
2022-12-03T18:34:14.974Z,-0.04
2022-12-03T18:36:41.987Z,-0.09
2022-12-03T18:39:18.853Z,-0.05
2022-12-03T18:41:45.548Z,-0.04
2022-12-03T18:44:12.502Z,-0.02
2022-12-03T18:46:53.633Z,0.03
2022-12-03T18:49:20.746Z,-0.02
2022-12-03T18:51:48.435Z,0.02
2022-12-03T18:54:15.611Z,-0.07
2022-12-03T18:56:42.244Z,-0.10
2022-12-03T18:59:09.074Z,-0.06
2022-12-03T19:01:36.111Z,-0.06
2022-12-03T19:04:03.027Z,-0.09
2022-12-03T19:06:30.615Z,-0.06
2022-12-03T19:08:57.337Z,-0.15
2022-12-03T19:11:24.122Z,-0.11
2022-12-03T19:13:51.323Z,-0.13
2022-12-03T19:16:18.049Z,-0.13
2022-12-03T19:18:45.012Z,-0.06
2022-12-03T19:21:14.350Z,-0.10
2022-12-03T19:23:44.573Z,-0.05
2022-12-03T19:26:30.360Z,-0.06
2022-12-03T19:28:57.297Z,-0.08
2022-12-03T19:31:23.954Z,-0.13
2022-12-03T19:33:51.777Z,-0.10
2022-12-03T19:36:24.917Z,-0.16
2022-12-03T19:38:56.953Z,-0.15
2022-12-03T19:41:27.404Z,-0.15
2022-12-03T19:43:55.871Z,-0.13
2022-12-03T19:46:24.528Z,-0.11
2022-12-03T19:48:51.626Z,-0.09
2022-12-03T19:51:34.035Z,-0.05
2022-12-03T19:54:02.298Z,-0.11
2022-12-03T19:56:30.437Z,-0.06
2022-12-03T19:58:58.012Z,-0.07
2022-12-03T20:01:27.858Z,-0.07
2022-12-03T20:03:57.608Z,-0.05
2022-12-03T20:06:28.257Z,-0.05
2022-12-03T20:09:03.362Z,-0.02
2022-12-03T20:11:32.181Z,-0.01
2022-12-03T20:14:05.513Z,-0.04
2022-12-03T20:16:32.789Z,-0.04
2022-12-03T20:19:01.769Z,-0.02
2022-12-03T20:21:31.460Z,0.02
2022-12-03T20:23:58.891Z,-0.09
2022-12-03T20:26:27.346Z,-0.03
2022-12-03T20:28:55.071Z,-0.06
2022-12-03T20:31:24.166Z,0.01
2022-12-03T20:33:54.911Z,0.00
2022-12-03T20:36:22.807Z,0.03
2022-12-03T20:38:54.200Z,0.05
2022-12-03T20:41:20.984Z,0.03
2022-12-03T20:43:47.996Z,0.04
2022-12-03T20:46:26.378Z,-0.03
2022-12-03T20:48:54.231Z,-0.03
2022-12-03T20:51:23.377Z,-0.04
2022-12-03T20:53:50.684Z,-0.10
2022-12-03T20:56:24.569Z,-0.04
2022-12-03T20:58:51.202Z,-0.03
2022-12-03T21:01:20.796Z,-0.03
2022-12-03T21:03:48.156Z,-0.09
2022-12-03T21:06:15.521Z,-0.08
2022-12-03T21:08:43.286Z,-0.10
2022-12-03T21:11:11.517Z,-0.08
2022-12-03T21:13:41.602Z,-0.06
2022-12-03T21:16:10.790Z,-0.05
2022-12-03T21:18:38.329Z,-0.05
2022-12-03T21:21:05.763Z,-0.03
2022-12-03T21:23:33.433Z,-0.03
2022-12-03T21:26:08.459Z,-0.05
2022-12-03T21:28:35.411Z,0.02
2022-12-03T21:31:05.798Z,-0.02
2022-12-03T21:33:33.078Z,0.02
2022-12-03T21:36:00.222Z,0.02
2022-12-03T21:38:28.013Z,0.01
2022-12-03T21:40:55.666Z,0.07
2022-12-03T21:43:22.943Z,0.09
2022-12-03T21:45:49.990Z,0.08
2022-12-03T21:48:16.935Z,0.06
2022-12-03T21:50:44.186Z,0.03
2022-12-03T21:53:11.025Z,-0.05
2022-12-03T21:55:41.251Z,-0.02
2022-12-03T21:58:08.778Z,-0.01
2022-12-03T22:00:36.122Z,0.00
2022-12-03T22:03:02.802Z,0.00
2022-12-03T22:05:29.440Z,0.01
2022-12-03T22:07:56.075Z,-0.08
2022-12-03T22:10:22.783Z,0.03
2022-12-03T22:12:49.383Z,0.07
2022-12-03T22:15:19.201Z,0.08
2022-12-03T22:17:46.467Z,0.03
2022-12-03T22:20:13.238Z,0.01
2022-12-03T22:22:39.884Z,0.04
2022-12-03T22:25:06.736Z,0.07
2022-12-03T22:27:33.479Z,0.05
2022-12-03T22:30:00.143Z,0.02
2022-12-03T22:32:26.948Z,0.02
2022-12-03T22:34:53.760Z,0.08
2022-12-03T22:37:20.444Z,0.13
2022-12-03T22:39:47.098Z,0.08
2022-12-03T22:42:13.706Z,0.08
2022-12-03T22:44:40.279Z,0.13
2022-12-03T22:47:06.870Z,0.08
2022-12-03T22:49:33.571Z,0.04
2022-12-03T22:52:00.163Z,0.14
2022-12-03T22:54:26.746Z,0.17
2022-12-03T22:56:53.359Z,0.18
2022-12-03T22:59:19.987Z,0.12
2022-12-03T23:01:47.366Z,0.06
2022-12-03T23:04:14.137Z,-0.04
2022-12-03T23:06:41.239Z,-0.03
2022-12-03T23:09:08.055Z,-0.04
2022-12-03T23:11:34.900Z,-0.06
2022-12-03T23:14:02.039Z,0.00
2022-12-03T23:16:30.883Z,-0.04
2022-12-03T23:18:59.377Z,0.04
2022-12-03T23:21:30.175Z,-0.09
2022-12-03T23:24:01.328Z,-0.05
2022-12-03T23:26:28.387Z,-0.09
2022-12-03T23:28:55.805Z,-0.08
2022-12-03T23:31:24.202Z,-0.03
2022-12-03T23:33:52.391Z,-0.07
2022-12-03T23:36:19.601Z,-0.05
2022-12-03T23:38:46.834Z,-0.09
2022-12-03T23:41:19.342Z,-0.07
2022-12-03T23:43:46.261Z,-0.10
2022-12-03T23:46:15.902Z,-0.10
2022-12-03T23:48:42.962Z,-0.09
2022-12-03T23:51:14.694Z,0.02
2022-12-03T23:53:41.535Z,0.01
2022-12-03T23:56:10.210Z,0.03
2022-12-03T23:58:38.590Z,0.04
